sensor_id;sensor_type;location;lat;lon;timestamp;temperature;humidity
74224;SHT31;62585;49.706;18.216;2023-10-31T00:01:51;20.82;50.07
74224;SHT31;62585;49.706;18.216;2023-10-31T00:04:18;20.79;49.94
74224;SHT31;62585;49.706;18.216;2023-10-31T00:06:43;20.78;49.42
74224;SHT31;62585;49.706;18.216;2023-10-31T00:09:10;20.81;49.92
74224;SHT31;62585;49.706;18.216;2023-10-31T00:11:37;20.79;49.21
74224;SHT31;62585;49.706;18.216;2023-10-31T00:14:03;20.85;49.49
74224;SHT31;62585;49.706;18.216;2023-10-31T00:16:29;20.89;49.11
74224;SHT31;62585;49.706;18.216;2023-10-31T00:18:55;20.88;49.49
74224;SHT31;62585;49.706;18.216;2023-10-31T00:21:20;20.89;49.66
74224;SHT31;62585;49.706;18.216;2023-10-31T00:23:47;20.85;49.34
74224;SHT31;62585;49.706;18.216;2023-10-31T00:26:14;20.85;49.48
74224;SHT31;62585;49.706;18.216;2023-10-31T00:28:40;20.87;49.27
74224;SHT31;62585;49.706;18.216;2023-10-31T00:31:06;20.84;48.80
74224;SHT31;62585;49.706;18.216;2023-10-31T00:33:37;20.87;48.89
74224;SHT31;62585;49.706;18.216;2023-10-31T00:36:03;20.95;48.64
74224;SHT31;62585;49.706;18.216;2023-10-31T00:38:29;21.03;48.51
74224;SHT31;62585;49.706;18.216;2023-10-31T00:40:55;21.08;48.39
74224;SHT31;62585;49.706;18.216;2023-10-31T00:43:21;21.02;48.34
74224;SHT31;62585;49.706;18.216;2023-10-31T00:45:47;21.09;48.12
74224;SHT31;62585;49.706;18.216;2023-10-31T00:48:13;21.09;47.87
74224;SHT31;62585;49.706;18.216;2023-10-31T00:50:39;20.96;48.01
74224;SHT31;62585;49.706;18.216;2023-10-31T00:53:05;21.08;48.06
74224;SHT31;62585;49.706;18.216;2023-10-31T00:55:31;21.05;47.53
74224;SHT31;62585;49.706;18.216;2023-10-31T00:57:57;21.02;47.70
74224;SHT31;62585;49.706;18.216;2023-10-31T01:00:22;21.12;47.68
74224;SHT31;62585;49.706;18.216;2023-10-31T01:02:48;21.08;47.50
74224;SHT31;62585;49.706;18.216;2023-10-31T01:05:14;20.96;47.83
74224;SHT31;62585;49.706;18.216;2023-10-31T01:07:40;20.98;47.77
74224;SHT31;62585;49.706;18.216;2023-10-31T01:10:06;21.00;47.30
74224;SHT31;62585;49.706;18.216;2023-10-31T01:12:33;21.03;47.56
74224;SHT31;62585;49.706;18.216;2023-10-31T01:14:59;21.00;47.72
74224;SHT31;62585;49.706;18.216;2023-10-31T01:17:24;20.98;48.16
74224;SHT31;62585;49.706;18.216;2023-10-31T01:19:50;20.95;47.94
74224;SHT31;62585;49.706;18.216;2023-10-31T01:22:16;20.94;48.40
74224;SHT31;62585;49.706;18.216;2023-10-31T01:24:42;21.00;47.94
74224;SHT31;62585;49.706;18.216;2023-10-31T01:27:08;21.05;47.72
74224;SHT31;62585;49.706;18.216;2023-10-31T01:29:34;21.10;48.09
74224;SHT31;62585;49.706;18.216;2023-10-31T01:32:00;21.02;48.14
74224;SHT31;62585;49.706;18.216;2023-10-31T01:34:25;20.99;48.01
74224;SHT31;62585;49.706;18.216;2023-10-31T01:36:51;20.96;47.80
74224;SHT31;62585;49.706;18.216;2023-10-31T01:39:17;20.95;47.86
74224;SHT31;62585;49.706;18.216;2023-10-31T01:41:44;21.00;47.40
74224;SHT31;62585;49.706;18.216;2023-10-31T01:44:10;21.05;47.43
74224;SHT31;62585;49.706;18.216;2023-10-31T01:46:36;21.02;47.71
74224;SHT31;62585;49.706;18.216;2023-10-31T01:49:02;21.03;47.74
74224;SHT31;62585;49.706;18.216;2023-10-31T01:51:29;21.08;47.61
74224;SHT31;62585;49.706;18.216;2023-10-31T01:53:55;21.12;47.53
74224;SHT31;62585;49.706;18.216;2023-10-31T01:56:22;21.10;47.42
74224;SHT31;62585;49.706;18.216;2023-10-31T01:58:48;21.10;47.39
74224;SHT31;62585;49.706;18.216;2023-10-31T02:01:15;21.08;47.41
74224;SHT31;62585;49.706;18.216;2023-10-31T02:03:41;21.08;47.46
74224;SHT31;62585;49.706;18.216;2023-10-31T02:06:07;21.16;47.28
74224;SHT31;62585;49.706;18.216;2023-10-31T02:08:33;21.12;47.34
74224;SHT31;62585;49.706;18.216;2023-10-31T02:13:35;21.08;47.81
74224;SHT31;62585;49.706;18.216;2023-10-31T02:16:01;20.98;47.49
74224;SHT31;62585;49.706;18.216;2023-10-31T02:18:27;21.02;47.85
74224;SHT31;62585;49.706;18.216;2023-10-31T02:20:53;20.98;47.42
74224;SHT31;62585;49.706;18.216;2023-10-31T02:23:19;20.99;47.69
74224;SHT31;62585;49.706;18.216;2023-10-31T02:25:44;20.85;47.86
74224;SHT31;62585;49.706;18.216;2023-10-31T02:28:10;20.84;48.06
74224;SHT31;62585;49.706;18.216;2023-10-31T02:30:36;20.82;47.94
74224;SHT31;62585;49.706;18.216;2023-10-31T02:33:02;20.84;48.00
74224;SHT31;62585;49.706;18.216;2023-10-31T02:35:28;20.81;47.79
74224;SHT31;62585;49.706;18.216;2023-10-31T02:37:54;20.88;47.66
74224;SHT31;62585;49.706;18.216;2023-10-31T02:40:20;20.89;47.68
74224;SHT31;62585;49.706;18.216;2023-10-31T02:42:46;20.92;47.87
74224;SHT31;62585;49.706;18.216;2023-10-31T02:45:12;20.79;48.15
74224;SHT31;62585;49.706;18.216;2023-10-31T02:47:38;20.77;48.13
74224;SHT31;62585;49.706;18.216;2023-10-31T02:50:04;20.75;48.24
74224;SHT31;62585;49.706;18.216;2023-10-31T02:52:30;20.74;48.05
74224;SHT31;62585;49.706;18.216;2023-10-31T02:54:56;20.75;48.45
74224;SHT31;62585;49.706;18.216;2023-10-31T02:57:22;20.70;47.97
74224;SHT31;62585;49.706;18.216;2023-10-31T02:59:48;20.72;48.25
74224;SHT31;62585;49.706;18.216;2023-10-31T03:02:14;20.71;48.05
74224;SHT31;62585;49.706;18.216;2023-10-31T03:04:40;20.71;48.24
74224;SHT31;62585;49.706;18.216;2023-10-31T03:07:06;20.74;48.39
74224;SHT31;62585;49.706;18.216;2023-10-31T03:09:32;20.60;47.91
74224;SHT31;62585;49.706;18.216;2023-10-31T03:11:57;20.61;48.21
74224;SHT31;62585;49.706;18.216;2023-10-31T03:14:24;20.63;47.70
74224;SHT31;62585;49.706;18.216;2023-10-31T03:16:50;20.65;48.10
74224;SHT31;62585;49.706;18.216;2023-10-31T03:19:16;20.65;48.32
74224;SHT31;62585;49.706;18.216;2023-10-31T03:21:42;20.52;48.38
74224;SHT31;62585;49.706;18.216;2023-10-31T03:24:08;20.52;48.76
74224;SHT31;62585;49.706;18.216;2023-10-31T03:26:34;20.50;48.76
74224;SHT31;62585;49.706;18.216;2023-10-31T03:29:00;20.55;48.77
74224;SHT31;62585;49.706;18.216;2023-10-31T03:31:26;20.55;48.80
74224;SHT31;62585;49.706;18.216;2023-10-31T03:33:52;20.47;48.98
74224;SHT31;62585;49.706;18.216;2023-10-31T03:36:19;20.52;48.98
74224;SHT31;62585;49.706;18.216;2023-10-31T03:38:45;20.34;49.49
74224;SHT31;62585;49.706;18.216;2023-10-31T03:41:11;20.36;49.40
74224;SHT31;62585;49.706;18.216;2023-10-31T03:43:38;20.48;49.50
74224;SHT31;62585;49.706;18.216;2023-10-31T03:46:04;20.34;49.48
74224;SHT31;62585;49.706;18.216;2023-10-31T03:48:31;20.36;49.77
74224;SHT31;62585;49.706;18.216;2023-10-31T03:50:56;20.26;50.33
74224;SHT31;62585;49.706;18.216;2023-10-31T03:53:22;20.26;50.58
74224;SHT31;62585;49.706;18.216;2023-10-31T03:55:48;20.13;51.63
74224;SHT31;62585;49.706;18.216;2023-10-31T03:58:14;19.97;52.32
74224;SHT31;62585;49.706;18.216;2023-10-31T04:00:40;19.92;53.29
74224;SHT31;62585;49.706;18.216;2023-10-31T04:03:07;19.83;52.97
74224;SHT31;62585;49.706;18.216;2023-10-31T04:05:34;19.89;52.95
74224;SHT31;62585;49.706;18.216;2023-10-31T04:08:00;19.81;53.17
74224;SHT31;62585;49.706;18.216;2023-10-31T04:10:26;19.76;53.52
74224;SHT31;62585;49.706;18.216;2023-10-31T04:12:52;19.76;53.25
74224;SHT31;62585;49.706;18.216;2023-10-31T04:15:17;19.72;53.04
74224;SHT31;62585;49.706;18.216;2023-10-31T04:17:43;19.68;53.08
74224;SHT31;62585;49.706;18.216;2023-10-31T04:20:09;19.69;53.25
74224;SHT31;62585;49.706;18.216;2023-10-31T04:22:36;19.69;52.52
74224;SHT31;62585;49.706;18.216;2023-10-31T04:25:02;19.75;50.74
74224;SHT31;62585;49.706;18.216;2023-10-31T04:27:28;19.87;51.26
74224;SHT31;62585;49.706;18.216;2023-10-31T04:29:54;19.76;50.87
74224;SHT31;62585;49.706;18.216;2023-10-31T04:32:20;19.85;50.30
74224;SHT31;62585;49.706;18.216;2023-10-31T04:34:46;19.89;50.65
74224;SHT31;62585;49.706;18.216;2023-10-31T04:37:12;19.85;49.88
74224;SHT31;62585;49.706;18.216;2023-10-31T04:39:37;19.81;49.79
74224;SHT31;62585;49.706;18.216;2023-10-31T04:42:04;19.87;50.07
74224;SHT31;62585;49.706;18.216;2023-10-31T04:44:29;19.82;49.85
74224;SHT31;62585;49.706;18.216;2023-10-31T04:46:55;19.82;49.79
74224;SHT31;62585;49.706;18.216;2023-10-31T04:49:21;19.83;49.39
74224;SHT31;62585;49.706;18.216;2023-10-31T04:51:48;19.76;49.63
74224;SHT31;62585;49.706;18.216;2023-10-31T04:54:13;19.72;49.26
74224;SHT31;62585;49.706;18.216;2023-10-31T04:56:40;19.78;49.08
74224;SHT31;62585;49.706;18.216;2023-10-31T04:59:05;19.78;49.51
74224;SHT31;62585;49.706;18.216;2023-10-31T05:01:31;19.66;49.83
74224;SHT31;62585;49.706;18.216;2023-10-31T05:03:57;19.59;50.65
74224;SHT31;62585;49.706;18.216;2023-10-31T05:06:23;19.47;51.56
74224;SHT31;62585;49.706;18.216;2023-10-31T05:08:49;19.38;51.40
74224;SHT31;62585;49.706;18.216;2023-10-31T05:11:18;19.31;52.25
74224;SHT31;62585;49.706;18.216;2023-10-31T05:13:45;19.16;52.57
74224;SHT31;62585;49.706;18.216;2023-10-31T05:16:11;19.04;53.59
74224;SHT31;62585;49.706;18.216;2023-10-31T05:18:40;18.99;54.11
74224;SHT31;62585;49.706;18.216;2023-10-31T05:21:06;18.82;54.31
74224;SHT31;62585;49.706;18.216;2023-10-31T05:23:31;18.72;54.44
74224;SHT31;62585;49.706;18.216;2023-10-31T05:25:58;18.63;55.02
74224;SHT31;62585;49.706;18.216;2023-10-31T05:28:23;18.62;54.79
74224;SHT31;62585;49.706;18.216;2023-10-31T05:30:49;18.68;54.83
74224;SHT31;62585;49.706;18.216;2023-10-31T05:33:15;18.61;55.17
74224;SHT31;62585;49.706;18.216;2023-10-31T05:35:42;18.55;55.59
74224;SHT31;62585;49.706;18.216;2023-10-31T05:38:08;18.42;56.37
74224;SHT31;62585;49.706;18.216;2023-10-31T05:40:34;18.47;56.75
74224;SHT31;62585;49.706;18.216;2023-10-31T05:43:03;18.44;57.25
74224;SHT31;62585;49.706;18.216;2023-10-31T05:45:30;18.34;58.22
74224;SHT31;62585;49.706;18.216;2023-10-31T05:47:56;18.34;58.29
74224;SHT31;62585;49.706;18.216;2023-10-31T05:50:22;18.23;58.73
74224;SHT31;62585;49.706;18.216;2023-10-31T05:52:47;18.07;58.88
74224;SHT31;62585;49.706;18.216;2023-10-31T05:55:13;17.94;59.37
74224;SHT31;62585;49.706;18.216;2023-10-31T05:57:39;17.80;60.11
74224;SHT31;62585;49.706;18.216;2023-10-31T06:00:08;17.76;59.57
74224;SHT31;62585;49.706;18.216;2023-10-31T06:02:34;17.67;59.91
74224;SHT31;62585;49.706;18.216;2023-10-31T06:05:00;17.65;60.17
74224;SHT31;62585;49.706;18.216;2023-10-31T06:07:26;17.62;60.11
74224;SHT31;62585;49.706;18.216;2023-10-31T06:09:52;17.70;59.07
74224;SHT31;62585;49.706;18.216;2023-10-31T06:12:18;17.75;59.04
74224;SHT31;62585;49.706;18.216;2023-10-31T06:14:44;17.83;58.52
74224;SHT31;62585;49.706;18.216;2023-10-31T06:17:09;17.83;58.58
74224;SHT31;62585;49.706;18.216;2023-10-31T06:19:36;17.82;58.54
74224;SHT31;62585;49.706;18.216;2023-10-31T06:22:02;17.83;58.55
74224;SHT31;62585;49.706;18.216;2023-10-31T06:24:29;17.77;58.68
74224;SHT31;62585;49.706;18.216;2023-10-31T06:26:54;17.73;58.94
74224;SHT31;62585;49.706;18.216;2023-10-31T06:29:20;17.66;59.01
74224;SHT31;62585;49.706;18.216;2023-10-31T06:31:46;17.65;58.58
74224;SHT31;62585;49.706;18.216;2023-10-31T06:34:13;17.63;58.44
74224;SHT31;62585;49.706;18.216;2023-10-31T06:36:39;17.62;58.81
74224;SHT31;62585;49.706;18.216;2023-10-31T06:39:05;17.63;57.99
74224;SHT31;62585;49.706;18.216;2023-10-31T06:41:30;17.66;57.53
74224;SHT31;62585;49.706;18.216;2023-10-31T06:43:56;17.62;57.57
74224;SHT31;62585;49.706;18.216;2023-10-31T06:46:22;17.57;57.65
74224;SHT31;62585;49.706;18.216;2023-10-31T06:48:48;17.63;57.26
74224;SHT31;62585;49.706;18.216;2023-10-31T06:51:14;17.62;57.43
74224;SHT31;62585;49.706;18.216;2023-10-31T06:53:40;17.57;56.80
74224;SHT31;62585;49.706;18.216;2023-10-31T06:56:06;17.67;57.03
74224;SHT31;62585;49.706;18.216;2023-10-31T06:58:32;17.66;56.74
74224;SHT31;62585;49.706;18.216;2023-10-31T07:00:57;17.66;56.98
74224;SHT31;62585;49.706;18.216;2023-10-31T07:03:23;17.59;57.29
74224;SHT31;62585;49.706;18.216;2023-10-31T07:05:49;17.52;56.97
74224;SHT31;62585;49.706;18.216;2023-10-31T07:08:15;17.56;57.28
74224;SHT31;62585;49.706;18.216;2023-10-31T07:10:41;17.53;56.80
74224;SHT31;62585;49.706;18.216;2023-10-31T07:13:07;17.48;57.49
74224;SHT31;62585;49.706;18.216;2023-10-31T07:15:33;17.48;57.22
74224;SHT31;62585;49.706;18.216;2023-10-31T07:18:05;17.48;57.89
74224;SHT31;62585;49.706;18.216;2023-10-31T07:20:33;17.40;57.55
74224;SHT31;62585;49.706;18.216;2023-10-31T07:22:59;17.32;57.85
74224;SHT31;62585;49.706;18.216;2023-10-31T07:25:25;17.31;58.36
74224;SHT31;62585;49.706;18.216;2023-10-31T07:27:51;17.32;58.20
74224;SHT31;62585;49.706;18.216;2023-10-31T07:30:16;17.22;58.77
74224;SHT31;62585;49.706;18.216;2023-10-31T07:32:42;17.25;58.95
74224;SHT31;62585;49.706;18.216;2023-10-31T07:35:11;17.11;59.10
74224;SHT31;62585;49.706;18.216;2023-10-31T07:37:37;17.15;59.15
74224;SHT31;62585;49.706;18.216;2023-10-31T07:40:03;17.06;59.59
74224;SHT31;62585;49.706;18.216;2023-10-31T07:42:30;16.95;59.62
74224;SHT31;62585;49.706;18.216;2023-10-31T07:44:55;16.91;60.19
74224;SHT31;62585;49.706;18.216;2023-10-31T07:47:21;17.00;60.16
74224;SHT31;62585;49.706;18.216;2023-10-31T07:49:47;17.01;60.14
74224;SHT31;62585;49.706;18.216;2023-10-31T07:52:14;16.98;60.42
74224;SHT31;62585;49.706;18.216;2023-10-31T07:54:40;17.01;60.45
74224;SHT31;62585;49.706;18.216;2023-10-31T07:57:07;16.97;60.85
74224;SHT31;62585;49.706;18.216;2023-10-31T07:59:36;16.84;61.41
74224;SHT31;62585;49.706;18.216;2023-10-31T08:02:02;16.77;62.11
74224;SHT31;62585;49.706;18.216;2023-10-31T08:04:29;16.83;62.44
74224;SHT31;62585;49.706;18.216;2023-10-31T08:06:55;16.70;62.94
74224;SHT31;62585;49.706;18.216;2023-10-31T08:09:21;16.53;63.87
74224;SHT31;62585;49.706;18.216;2023-10-31T08:11:48;16.32;65.65
74224;SHT31;62585;49.706;18.216;2023-10-31T08:14:13;16.18;67.36
74224;SHT31;62585;49.706;18.216;2023-10-31T08:16:42;15.95;68.96
74224;SHT31;62585;49.706;18.216;2023-10-31T08:19:07;15.87;69.73
74224;SHT31;62585;49.706;18.216;2023-10-31T08:21:33;15.71;70.69
74224;SHT31;62585;49.706;18.216;2023-10-31T08:24:01;15.66;70.67
74224;SHT31;62585;49.706;18.216;2023-10-31T08:26:27;15.75;70.65
74224;SHT31;62585;49.706;18.216;2023-10-31T08:28:53;15.70;70.71
74224;SHT31;62585;49.706;18.216;2023-10-31T08:31:19;15.74;70.72
74224;SHT31;62585;49.706;18.216;2023-10-31T08:33:45;15.70;70.86
74224;SHT31;62585;49.706;18.216;2023-10-31T08:36:11;15.68;71.13
74224;SHT31;62585;49.706;18.216;2023-10-31T08:38:37;15.83;70.80
74224;SHT31;62585;49.706;18.216;2023-10-31T08:41:03;15.77;70.68
74224;SHT31;62585;49.706;18.216;2023-10-31T08:43:29;15.90;70.87
74224;SHT31;62585;49.706;18.216;2023-10-31T08:45:55;15.84;70.34
74224;SHT31;62585;49.706;18.216;2023-10-31T08:48:20;15.85;70.49
74224;SHT31;62585;49.706;18.216;2023-10-31T08:50:46;15.98;70.24
74224;SHT31;62585;49.706;18.216;2023-10-31T08:53:12;15.91;70.06
74224;SHT31;62585;49.706;18.216;2023-10-31T08:55:38;15.95;69.96
74224;SHT31;62585;49.706;18.216;2023-10-31T08:58:04;15.90;70.22
74224;SHT31;62585;49.706;18.216;2023-10-31T09:00:30;15.94;70.60
74224;SHT31;62585;49.706;18.216;2023-10-31T09:02:56;15.94;70.58
74224;SHT31;62585;49.706;18.216;2023-10-31T09:05:22;16.05;70.71
74224;SHT31;62585;49.706;18.216;2023-10-31T09:07:47;15.83;71.35
74224;SHT31;62585;49.706;18.216;2023-10-31T09:10:13;15.88;71.53
74224;SHT31;62585;49.706;18.216;2023-10-31T09:12:39;15.98;71.55
74224;SHT31;62585;49.706;18.216;2023-10-31T09:15:06;16.09;71.08
74224;SHT31;62585;49.706;18.216;2023-10-31T09:17:31;15.98;71.28
74224;SHT31;62585;49.706;18.216;2023-10-31T09:19:57;16.18;70.97
74224;SHT31;62585;49.706;18.216;2023-10-31T09:22:24;16.02;70.72
74224;SHT31;62585;49.706;18.216;2023-10-31T09:24:50;16.00;71.48
74224;SHT31;62585;49.706;18.216;2023-10-31T09:27:16;16.08;71.38
74224;SHT31;62585;49.706;18.216;2023-10-31T09:29:42;16.04;70.99
74224;SHT31;62585;49.706;18.216;2023-10-31T09:32:08;15.95;71.27
74224;SHT31;62585;49.706;18.216;2023-10-31T09:34:34;15.98;71.65
74224;SHT31;62585;49.706;18.216;2023-10-31T09:36:59;16.00;71.37
74224;SHT31;62585;49.706;18.216;2023-10-31T09:39:25;16.01;71.29
74224;SHT31;62585;49.706;18.216;2023-10-31T09:41:53;15.97;71.85
74224;SHT31;62585;49.706;18.216;2023-10-31T09:44:19;16.11;71.60
74224;SHT31;62585;49.706;18.216;2023-10-31T09:46:45;16.15;71.60
74224;SHT31;62585;49.706;18.216;2023-10-31T09:49:12;15.98;71.69
74224;SHT31;62585;49.706;18.216;2023-10-31T09:51:38;15.95;71.57
74224;SHT31;62585;49.706;18.216;2023-10-31T09:54:05;15.85;71.16
74224;SHT31;62585;49.706;18.216;2023-10-31T09:56:32;15.85;71.87
74224;SHT31;62585;49.706;18.216;2023-10-31T09:59:01;15.80;71.74
74224;SHT31;62585;49.706;18.216;2023-10-31T10:01:28;15.85;71.73
74224;SHT31;62585;49.706;18.216;2023-10-31T10:03:55;15.75;71.51
74224;SHT31;62585;49.706;18.216;2023-10-31T10:06:21;15.70;71.76
74224;SHT31;62585;49.706;18.216;2023-10-31T10:08:50;15.87;71.64
74224;SHT31;62585;49.706;18.216;2023-10-31T10:11:16;16.00;71.16
74224;SHT31;62585;49.706;18.216;2023-10-31T10:13:42;15.85;71.03
74224;SHT31;62585;49.706;18.216;2023-10-31T10:16:09;15.90;71.17
74224;SHT31;62585;49.706;18.216;2023-10-31T10:18:36;15.91;70.98
74224;SHT31;62585;49.706;18.216;2023-10-31T10:21:05;15.88;71.23
74224;SHT31;62585;49.706;18.216;2023-10-31T10:23:32;15.74;70.77
74224;SHT31;62585;49.706;18.216;2023-10-31T10:25:59;15.74;71.08
74224;SHT31;62585;49.706;18.216;2023-10-31T10:28:26;15.91;70.65
74224;SHT31;62585;49.706;18.216;2023-10-31T10:30:53;15.95;70.48
74224;SHT31;62585;49.706;18.216;2023-10-31T10:33:19;16.00;70.52
74224;SHT31;62585;49.706;18.216;2023-10-31T10:35:45;16.14;70.74
74224;SHT31;62585;49.706;18.216;2023-10-31T10:38:14;15.91;70.66
74224;SHT31;62585;49.706;18.216;2023-10-31T10:40:43;15.84;70.79
74224;SHT31;62585;49.706;18.216;2023-10-31T10:43:23;15.88;70.74
74224;SHT31;62585;49.706;18.216;2023-10-31T10:45:57;15.71;71.89
74224;SHT31;62585;49.706;18.216;2023-10-31T10:48:26;15.51;72.48
74224;SHT31;62585;49.706;18.216;2023-10-31T10:51:18;15.64;72.67
74224;SHT31;62585;49.706;18.216;2023-10-31T10:53:49;15.66;73.47
74224;SHT31;62585;49.706;18.216;2023-10-31T10:56:34;15.94;73.73
74224;SHT31;62585;49.706;18.216;2023-10-31T10:59:12;15.70;74.72
74224;SHT31;62585;49.706;18.216;2023-10-31T11:01:41;15.63;75.59
74224;SHT31;62585;49.706;18.216;2023-10-31T11:04:08;15.46;75.78
74224;SHT31;62585;49.706;18.216;2023-10-31T11:06:34;15.53;75.41
74224;SHT31;62585;49.706;18.216;2023-10-31T11:09:01;15.30;75.73
74224;SHT31;62585;49.706;18.216;2023-10-31T11:11:28;15.44;75.64
74224;SHT31;62585;49.706;18.216;2023-10-31T11:13:55;15.67;74.63
74224;SHT31;62585;49.706;18.216;2023-10-31T11:16:39;15.70;73.57
74224;SHT31;62585;49.706;18.216;2023-10-31T11:19:08;15.75;73.63
74224;SHT31;62585;49.706;18.216;2023-10-31T11:21:34;15.71;72.81
74224;SHT31;62585;49.706;18.216;2023-10-31T11:24:00;15.57;73.20
74224;SHT31;62585;49.706;18.216;2023-10-31T11:26:28;15.66;72.95
74224;SHT31;62585;49.706;18.216;2023-10-31T11:29:07;15.74;73.09
74224;SHT31;62585;49.706;18.216;2023-10-31T11:31:37;15.95;72.27
74224;SHT31;62585;49.706;18.216;2023-10-31T11:34:03;16.15;72.19
74224;SHT31;62585;49.706;18.216;2023-10-31T11:36:32;16.00;72.36
74224;SHT31;62585;49.706;18.216;2023-10-31T11:41:45;16.38;71.22
74224;SHT31;62585;49.706;18.216;2023-10-31T11:44:15;16.36;71.21
74224;SHT31;62585;49.706;18.216;2023-10-31T11:46:40;16.52;71.28
74224;SHT31;62585;49.706;18.216;2023-10-31T11:49:06;16.59;70.42
74224;SHT31;62585;49.706;18.216;2023-10-31T11:51:32;16.55;70.54
74224;SHT31;62585;49.706;18.216;2023-10-31T11:54:01;16.38;71.74
74224;SHT31;62585;49.706;18.216;2023-10-31T11:56:27;16.48;71.64
74224;SHT31;62585;49.706;18.216;2023-10-31T11:59:01;16.19;71.79
74224;SHT31;62585;49.706;18.216;2023-10-31T12:01:27;15.91;72.53
74224;SHT31;62585;49.706;18.216;2023-10-31T12:03:54;16.02;72.11
74224;SHT31;62585;49.706;18.216;2023-10-31T12:06:20;16.16;71.97
74224;SHT31;62585;49.706;18.216;2023-10-31T12:08:48;16.57;70.74
74224;SHT31;62585;49.706;18.216;2023-10-31T12:11:18;16.15;71.09
74224;SHT31;62585;49.706;18.216;2023-10-31T12:13:58;15.78;72.42
74224;SHT31;62585;49.706;18.216;2023-10-31T12:16:28;15.75;72.84
74224;SHT31;62585;49.706;18.216;2023-10-31T12:19:03;15.71;73.18
74224;SHT31;62585;49.706;18.216;2023-10-31T12:24:11;15.67;73.93
74224;SHT31;62585;49.706;18.216;2023-10-31T12:26:38;15.49;75.64
74224;SHT31;62585;49.706;18.216;2023-10-31T12:29:14;15.47;75.82
74224;SHT31;62585;49.706;18.216;2023-10-31T12:31:52;15.40;76.29
74224;SHT31;62585;49.706;18.216;2023-10-31T12:34:25;15.40;75.98
74224;SHT31;62585;49.706;18.216;2023-10-31T12:36:53;15.50;75.77
74224;SHT31;62585;49.706;18.216;2023-10-31T12:39:27;15.39;76.55
74224;SHT31;62585;49.706;18.216;2023-10-31T12:41:53;15.43;76.74
74224;SHT31;62585;49.706;18.216;2023-10-31T12:44:26;15.32;77.17
74224;SHT31;62585;49.706;18.216;2023-10-31T12:46:52;15.30;77.53
74224;SHT31;62585;49.706;18.216;2023-10-31T12:49:20;15.27;77.75
74224;SHT31;62585;49.706;18.216;2023-10-31T12:51:59;15.16;78.90
74224;SHT31;62585;49.706;18.216;2023-10-31T12:54:35;15.18;78.83
74224;SHT31;62585;49.706;18.216;2023-10-31T12:57:08;15.15;79.24
74224;SHT31;62585;49.706;18.216;2023-10-31T12:59:36;14.74;80.54
74224;SHT31;62585;49.706;18.216;2023-10-31T13:02:06;14.65;81.54
74224;SHT31;62585;49.706;18.216;2023-10-31T13:04:32;14.52;81.81
74224;SHT31;62585;49.706;18.216;2023-10-31T13:07:01;14.48;82.53
74224;SHT31;62585;49.706;18.216;2023-10-31T13:09:31;14.51;82.73
74224;SHT31;62585;49.706;18.216;2023-10-31T13:12:02;14.23;84.02
74224;SHT31;62585;49.706;18.216;2023-10-31T13:14:29;14.32;84.30
74224;SHT31;62585;49.706;18.216;2023-10-31T13:16:55;14.29;83.96
74224;SHT31;62585;49.706;18.216;2023-10-31T13:19:21;14.26;84.33
74224;SHT31;62585;49.706;18.216;2023-10-31T13:21:48;14.36;84.48
74224;SHT31;62585;49.706;18.216;2023-10-31T13:24:14;14.08;85.18
74224;SHT31;62585;49.706;18.216;2023-10-31T13:26:40;13.95;85.57
74224;SHT31;62585;49.706;18.216;2023-10-31T13:29:06;14.10;85.53
74224;SHT31;62585;49.706;18.216;2023-10-31T13:31:31;14.02;85.92
74224;SHT31;62585;49.706;18.216;2023-10-31T13:33:57;13.90;86.13
74224;SHT31;62585;49.706;18.216;2023-10-31T13:36:23;14.02;86.60
74224;SHT31;62585;49.706;18.216;2023-10-31T13:38:50;13.89;86.50
74224;SHT31;62585;49.706;18.216;2023-10-31T13:41:15;13.96;86.48
74224;SHT31;62585;49.706;18.216;2023-10-31T13:43:41;13.86;86.16
74224;SHT31;62585;49.706;18.216;2023-10-31T13:46:07;13.68;87.50
74224;SHT31;62585;49.706;18.216;2023-10-31T13:48:33;13.85;87.06
74224;SHT31;62585;49.706;18.216;2023-10-31T13:50:59;13.78;86.03
74224;SHT31;62585;49.706;18.216;2023-10-31T13:53:25;13.61;87.43
74224;SHT31;62585;49.706;18.216;2023-10-31T13:55:51;13.74;87.12
74224;SHT31;62585;49.706;18.216;2023-10-31T13:58:17;13.68;87.51
74224;SHT31;62585;49.706;18.216;2023-10-31T14:00:43;13.43;88.43
74224;SHT31;62585;49.706;18.216;2023-10-31T14:03:12;13.18;87.11
74224;SHT31;62585;49.706;18.216;2023-10-31T14:05:38;13.13;86.66
74224;SHT31;62585;49.706;18.216;2023-10-31T14:08:04;13.30;85.66
74224;SHT31;62585;49.706;18.216;2023-10-31T14:10:33;13.20;84.99
74224;SHT31;62585;49.706;18.216;2023-10-31T14:13:00;13.20;85.08
74224;SHT31;62585;49.706;18.216;2023-10-31T14:15:26;12.97;84.77
74224;SHT31;62585;49.706;18.216;2023-10-31T14:17:52;12.72;86.19
74224;SHT31;62585;49.706;18.216;2023-10-31T14:20:18;12.69;85.89
74224;SHT31;62585;49.706;18.216;2023-10-31T14:22:48;12.56;86.06
74224;SHT31;62585;49.706;18.216;2023-10-31T14:25:16;12.68;86.24
74224;SHT31;62585;49.706;18.216;2023-10-31T14:27:47;12.55;85.95
74224;SHT31;62585;49.706;18.216;2023-10-31T14:30:13;12.45;86.58
74224;SHT31;62585;49.706;18.216;2023-10-31T14:32:39;12.59;86.01
74224;SHT31;62585;49.706;18.216;2023-10-31T14:35:05;12.72;85.63
74224;SHT31;62585;49.706;18.216;2023-10-31T14:37:32;12.61;85.81
74224;SHT31;62585;49.706;18.216;2023-10-31T14:39:58;12.68;85.62
74224;SHT31;62585;49.706;18.216;2023-10-31T14:42:24;12.68;85.01
74224;SHT31;62585;49.706;18.216;2023-10-31T14:44:50;12.73;85.24
74224;SHT31;62585;49.706;18.216;2023-10-31T14:47:16;12.72;85.33
74224;SHT31;62585;49.706;18.216;2023-10-31T14:49:42;12.62;85.24
74224;SHT31;62585;49.706;18.216;2023-10-31T14:52:09;12.56;85.35
74224;SHT31;62585;49.706;18.216;2023-10-31T14:54:34;12.99;84.14
74224;SHT31;62585;49.706;18.216;2023-10-31T14:57:02;13.11;83.56
74224;SHT31;62585;49.706;18.216;2023-10-31T14:59:28;13.21;83.26
74224;SHT31;62585;49.706;18.216;2023-10-31T15:01:54;13.41;82.57
74224;SHT31;62585;49.706;18.216;2023-10-31T15:04:20;13.31;82.42
74224;SHT31;62585;49.706;18.216;2023-10-31T15:06:46;13.43;82.23
74224;SHT31;62585;49.706;18.216;2023-10-31T15:09:11;13.71;81.86
74224;SHT31;62585;49.706;18.216;2023-10-31T15:11:38;13.93;81.07
74224;SHT31;62585;49.706;18.216;2023-10-31T15:14:03;13.89;80.85
74224;SHT31;62585;49.706;18.216;2023-10-31T15:16:30;13.87;81.10
74224;SHT31;62585;49.706;18.216;2023-10-31T15:18:57;13.72;81.69
74224;SHT31;62585;49.706;18.216;2023-10-31T15:21:23;13.41;82.13